Grizzly Air Cargo 5136


PANC
Ted Stevens Anchorage International Airport
Anchorage, Alaska, US
PASC
Deadhorse Airport
Deadhorse, Alaska, US

Activity Log

Date Flight Route Aircraft Duration
11/26/2019 GRZ5136 N0444F360 TED Q43 BGQ J115 CAWIN Q41 SCC B738 1h 48m
09/10/2019 GRZ536 UMT JOVVO B722 0h 56m

Route Details

Aircraft Information
Primary: Boeing 727-200F
Backup: Boeing 737-800BCF
Route Data
Distance: 640nm
Sched. Duration: 1h 35m
Avg. Duration: 1h 02m (-33m)
Times Flown: 2
Recm'd Route: BIXER ARCON SCC
Planned Altitude: 36,000ft
Origin Wx: PANC 271053Z 00000KT 10SM CLR M11/M12 A2953 RMK AO2 SLP004 I1000 T11111122
Dest. Wx: PASC 271053Z 23003KT 10SM CLR M41/ A3018 RMK AO2 SLP224 T1411 $
Notes:

Financial History
Total Freight: 77,259lbs
Average Load: 38,630lbs/flt
Fuel Used: 22,951lbs
Avg. Fuel Used: 11,476lbs/flt
Fuel Expense: $29,035
Avg. Fuel Expense: $14,517
Avg. Fuel Cost: $1.27/lbs
Total Gross Income: $142,331
Pilot Pay: $458
Total Expenses: $15,476
Total Revenue: $97,259
Average Revenue: $71,165.63